sensor_id;sensor_type;location;lat;lon;timestamp;pressure;altitude;pressure_sealevel;temperature;humidity
25869;BME280;13688;53.154;18.136;2022-11-20T00:03:48;100552.83;;;-2.82;100.00
25869;BME280;13688;53.154;18.136;2022-11-20T00:09:11;100544.02;;;-2.81;100.00
25869;BME280;13688;53.154;18.136;2022-11-20T00:14:33;100542.25;;;-2.81;100.00
25869;BME280;13688;53.154;18.136;2022-11-20T00:19:55;100550.15;;;-2.81;100.00
25869;BME280;13688;53.154;18.136;2022-11-20T00:25:18;100548.38;;;-2.80;100.00
25869;BME280;13688;53.154;18.136;2022-11-20T00:30:40;100552.78;;;-2.81;100.00
25869;BME280;13688;53.154;18.136;2022-11-20T00:36:11;100564.16;;;-2.79;100.00
25869;BME280;13688;53.154;18.136;2022-11-20T00:41:35;100567.70;;;-2.81;100.00
25869;BME280;13688;53.154;18.136;2022-11-20T00:46:57;100556.26;;;-2.79;100.00
25869;BME280;13688;53.154;18.136;2022-11-20T00:52:19;100556.22;;;-2.77;100.00
25869;BME280;13688;53.154;18.136;2022-11-20T00:57:42;100552.72;;;-2.78;100.00
25869;BME280;13688;53.154;18.136;2022-11-20T01:03:04;100558.84;;;-2.77;100.00
25869;BME280;13688;53.154;18.136;2022-11-20T01:08:29;100556.17;;;-2.76;100.00
25869;BME280;13688;53.154;18.136;2022-11-20T01:13:53;100555.31;;;-2.76;100.00
25869;BME280;13688;53.154;18.136;2022-11-20T01:19:20;100554.45;;;-2.77;100.00
25869;BME280;13688;53.154;18.136;2022-11-20T01:24:42;100543.92;;;-2.77;100.00
25869;BME280;13688;53.154;18.136;2022-11-20T01:30:05;100541.25;;;-2.75;100.00
25869;BME280;13688;53.154;18.136;2022-11-20T01:35:29;100548.23;;;-2.74;100.00
25869;BME280;13688;53.154;18.136;2022-11-20T01:40:54;100549.09;;;-2.74;100.00
25869;BME280;13688;53.154;18.136;2022-11-20T01:46:24;100543.78;;;-2.72;100.00
25869;BME280;13688;53.154;18.136;2022-11-20T01:51:53;100548.14;;;-2.71;100.00
25869;BME280;13688;53.154;18.136;2022-11-20T01:57:24;100550.77;;;-2.70;100.00
25869;BME280;13688;53.154;18.136;2022-11-20T02:03:03;100543.68;;;-2.68;100.00
25869;BME280;13688;53.154;18.136;2022-11-20T02:08:28;100544.50;;;-2.66;100.00
25869;BME280;13688;53.154;18.136;2022-11-20T02:13:52;100549.77;;;-2.66;100.00
25869;BME280;13688;53.154;18.136;2022-11-20T02:19:23;100533.97;;;-2.66;100.00
25869;BME280;13688;53.154;18.136;2022-11-20T02:24:48;100544.50;;;-2.66;100.00
25869;BME280;13688;53.154;18.136;2022-11-20T02:30:11;100537.47;;;-2.65;100.00
25869;BME280;13688;53.154;18.136;2022-11-20T02:35:39;100526.08;;;-2.66;100.00
25869;BME280;13688;53.154;18.136;2022-11-20T02:41:01;100527.89;;;-2.68;100.00
25869;BME280;13688;53.154;18.136;2022-11-20T02:46:23;100515.59;;;-2.67;100.00
25869;BME280;13688;53.154;18.136;2022-11-20T02:51:46;100518.23;;;-2.67;100.00
25869;BME280;13688;53.154;18.136;2022-11-20T02:57:08;100512.10;;;-2.68;100.00
25869;BME280;13688;53.154;18.136;2022-11-20T03:02:31;100523.49;;;-2.67;100.00
25869;BME280;13688;53.154;18.136;2022-11-20T03:07:53;100522.63;;;-2.68;100.00
25869;BME280;13688;53.154;18.136;2022-11-20T03:13:16;100527.08;;;-2.70;100.00
25869;BME280;13688;53.154;18.136;2022-11-20T03:18:38;100532.35;;;-2.71;100.00
25869;BME280;13688;53.154;18.136;2022-11-20T03:24:01;100521.83;;;-2.71;100.00
25869;BME280;13688;53.154;18.136;2022-11-20T03:29:24;100528.91;;;-2.73;100.00
25869;BME280;13688;53.154;18.136;2022-11-20T03:34:46;100528.05;;;-2.74;100.00
25869;BME280;13688;53.154;18.136;2022-11-20T03:40:09;100519.34;;;-2.76;100.00
25869;BME280;13688;53.154;18.136;2022-11-20T03:45:32;100514.07;;;-2.76;100.00
25869;BME280;13688;53.154;18.136;2022-11-20T03:51:12;100515.80;;;-2.75;100.00
25869;BME280;13688;53.154;18.136;2022-11-20T03:56:35;100519.28;;;-2.74;100.00
25869;BME280;13688;53.154;18.136;2022-11-20T04:01:57;100521.05;;;-2.75;100.00
25869;BME280;13688;53.154;18.136;2022-11-20T04:07:20;100526.32;;;-2.75;100.00
25869;BME280;13688;53.154;18.136;2022-11-20T04:12:42;100515.84;;;-2.76;100.00
25869;BME280;13688;53.154;18.136;2022-11-20T04:18:04;100513.20;;;-2.76;100.00
25869;BME280;13688;53.154;18.136;2022-11-20T04:23:27;100512.34;;;-2.77;100.00
25869;BME280;13688;53.154;18.136;2022-11-20T04:28:50;100510.63;;;-2.78;100.00
25869;BME280;13688;53.154;18.136;2022-11-20T04:34:13;100498.33;;;-2.77;100.00
25869;BME280;13688;53.154;18.136;2022-11-20T04:39:35;100509.72;;;-2.77;100.00
25869;BME280;13688;53.154;18.136;2022-11-20T04:44:57;100502.69;;;-2.76;100.00
25869;BME280;13688;53.154;18.136;2022-11-20T04:50:20;100493.02;;;-2.76;100.00
25869;BME280;13688;53.154;18.136;2022-11-20T04:55:42;100492.11;;;-2.75;100.00
25869;BME280;13688;53.154;18.136;2022-11-20T05:01:13;100487.71;;;-2.74;100.00
25869;BME280;13688;53.154;18.136;2022-11-20T05:06:37;100495.61;;;-2.74;100.00
25869;BME280;13688;53.154;18.136;2022-11-20T05:11:59;100487.71;;;-2.74;100.00
25869;BME280;13688;53.154;18.136;2022-11-20T05:17:23;100480.73;;;-2.75;100.00
25869;BME280;13688;53.154;18.136;2022-11-20T05:22:45;100477.28;;;-2.77;100.00
25869;BME280;13688;53.154;18.136;2022-11-20T05:28:07;100475.55;;;-2.78;100.00
25869;BME280;13688;53.154;18.136;2022-11-20T05:33:29;100476.42;;;-2.78;100.00
25869;BME280;13688;53.154;18.136;2022-11-20T05:38:52;100466.75;;;-2.77;100.00
25869;BME280;13688;53.154;18.136;2022-11-20T05:44:19;100477.19;;;-2.74;100.00
25869;BME280;13688;53.154;18.136;2022-11-20T05:49:41;100484.98;;;-2.71;100.00
25869;BME280;13688;53.154;18.136;2022-11-20T05:55:03;100484.13;;;-2.72;100.00
25869;BME280;13688;53.154;18.136;2022-11-20T06:00:26;100483.27;;;-2.72;100.00
25869;BME280;13688;53.154;18.136;2022-11-20T06:05:49;100480.68;;;-2.74;100.00
25869;BME280;13688;53.154;18.136;2022-11-20T06:11:12;100485.08;;;-2.74;100.00
25869;BME280;13688;53.154;18.136;2022-11-20T06:16:35;100492.11;;;-2.75;100.00
25869;BME280;13688;53.154;18.136;2022-11-20T06:21:57;100486.84;;;-2.75;100.00
25869;BME280;13688;53.154;18.136;2022-11-20T06:27:19;100486.98;;;-2.79;100.00
25869;BME280;13688;53.154;18.136;2022-11-20T06:32:42;100486.23;;;-2.84;100.00
25869;BME280;13688;53.154;18.136;2022-11-20T06:38:05;100488.81;;;-2.83;100.00
25869;BME280;13688;53.154;18.136;2022-11-20T06:43:28;100484.46;;;-2.84;100.00
25869;BME280;13688;53.154;18.136;2022-11-20T06:48:51;100484.42;;;-2.82;100.00
25869;BME280;13688;53.154;18.136;2022-11-20T06:54:13;100481.73;;;-2.79;100.00
25869;BME280;13688;53.154;18.136;2022-11-20T06:59:35;100478.20;;;-2.80;100.00
25869;BME280;13688;53.154;18.136;2022-11-20T07:04:58;100472.92;;;-2.78;100.00
25869;BME280;13688;53.154;18.136;2022-11-20T07:10:20;100479.91;;;-2.77;100.00
25869;BME280;13688;53.154;18.136;2022-11-20T07:15:42;100474.55;;;-2.74;100.00
25869;BME280;13688;53.154;18.136;2022-11-20T07:21:12;100468.48;;;-2.76;100.00
25869;BME280;13688;53.154;18.136;2022-11-20T07:26:35;100470.92;;;-2.70;100.00
25869;BME280;13688;53.154;18.136;2022-11-20T07:31:58;100474.30;;;-2.65;100.00
25869;BME280;13688;53.154;18.136;2022-11-20T07:37:21;100478.61;;;-2.63;100.00
25869;BME280;13688;53.154;18.136;2022-11-20T07:42:50;100473.30;;;-2.61;100.00
25869;BME280;13688;53.154;18.136;2022-11-20T07:48:13;100457.45;;;-2.58;100.00
25869;BME280;13688;53.154;18.136;2022-11-20T07:53:35;100455.58;;;-2.54;100.00
25869;BME280;13688;53.154;18.136;2022-11-20T07:58:57;100458.16;;;-2.53;100.00
25869;BME280;13688;53.154;18.136;2022-11-20T08:04:21;100459.01;;;-2.51;100.00
25869;BME280;13688;53.154;18.136;2022-11-20T08:09:43;100448.28;;;-2.45;100.00
25869;BME280;13688;53.154;18.136;2022-11-20T08:15:07;100452.57;;;-2.41;100.00
25869;BME280;13688;53.154;18.136;2022-11-20T08:20:30;100451.39;;;-2.31;100.00
25869;BME280;13688;53.154;18.136;2022-11-20T08:25:54;100455.48;;;-2.20;100.00
25869;BME280;13688;53.154;18.136;2022-11-20T08:31:17;100456.39;;;-2.21;100.00
25869;BME280;13688;53.154;18.136;2022-11-20T08:36:40;100441.19;;;-2.13;100.00
25869;BME280;13688;53.154;18.136;2022-11-20T08:42:06;100447.25;;;-2.10;100.00
25869;BME280;13688;53.154;18.136;2022-11-20T08:47:26;100434.03;;;-2.08;100.00
25869;BME280;13688;53.154;18.136;2022-11-20T08:52:49;100436.44;;;-2.00;100.00
25869;BME280;13688;53.154;18.136;2022-11-20T08:58:12;100426.83;;;-2.03;100.00
25869;BME280;13688;53.154;18.136;2022-11-20T09:03:34;100430.94;;;-1.93;100.00
25869;BME280;13688;53.154;18.136;2022-11-20T09:09:00;100416.73;;;-1.89;100.00
25869;BME280;13688;53.154;18.136;2022-11-20T09:14:22;100421.38;;;-1.97;100.00
25869;BME280;13688;53.154;18.136;2022-11-20T09:19:45;100416.34;;;-2.05;100.00
25869;BME280;13688;53.154;18.136;2022-11-20T09:25:08;100415.41;;;-2.02;100.00
25869;BME280;13688;53.154;18.136;2022-11-20T09:30:31;100409.86;;;-1.93;100.00
25869;BME280;13688;53.154;18.136;2022-11-20T09:35:54;100415.83;;;-1.88;100.00
25869;BME280;13688;53.154;18.136;2022-11-20T09:41:31;100406.83;;;-1.81;100.00
25869;BME280;13688;53.154;18.136;2022-11-20T09:58:52;100391.27;;;-1.62;100.00
25869;BME280;13688;53.154;18.136;2022-11-20T10:04:25;100398.41;;;-1.65;100.00
25869;BME280;13688;53.154;18.136;2022-11-20T10:09:54;100399.56;;;-1.74;100.00
25869;BME280;13688;53.154;18.136;2022-11-20T10:21:13;100399.10;;;-1.87;100.00
25869;BME280;13688;53.154;18.136;2022-11-20T10:26:43;100398.69;;;-2.01;100.00
25869;BME280;13688;53.154;18.136;2022-11-20T10:32:16;100392.56;;;-2.02;100.00
25869;BME280;13688;53.154;18.136;2022-11-20T10:37:43;100389.06;;;-2.02;100.00
25869;BME280;13688;53.154;18.136;2022-11-20T10:43:19;100381.00;;;-1.97;100.00
25869;BME280;13688;53.154;18.136;2022-11-20T10:48:47;100371.22;;;-1.94;100.00
25869;BME280;13688;53.154;18.136;2022-11-20T10:54:31;100368.09;;;-1.79;100.00
25869;BME280;13688;53.154;18.136;2022-11-20T11:00:07;100374.17;;;-1.77;100.00
25869;BME280;13688;53.154;18.136;2022-11-20T11:11:27;100373.83;;;-1.92;100.00
25869;BME280;13688;53.154;18.136;2022-11-20T11:16:57;100370.12;;;-1.87;100.00
25869;BME280;13688;53.154;18.136;2022-11-20T11:22:21;100370.06;;;-1.85;100.00
25869;BME280;13688;53.154;18.136;2022-11-20T11:27:52;100368.45;;;-1.89;100.00
25869;BME280;13688;53.154;18.136;2022-11-20T11:33:25;100363.02;;;-1.85;100.00
25869;BME280;13688;53.154;18.136;2022-11-20T11:38:50;100363.69;;;-1.78;100.00
25869;BME280;13688;53.154;18.136;2022-11-20T11:44:28;100364.66;;;-1.81;100.00
25869;BME280;13688;53.154;18.136;2022-11-20T11:55:44;100364.62;;;-2.07;100.00
25869;BME280;13688;53.154;18.136;2022-11-20T12:01:44;100355.00;;;-2.08;100.00
25869;BME280;13688;53.154;18.136;2022-11-20T12:07:15;100358.55;;;-2.09;99.86
25869;BME280;13688;53.154;18.136;2022-11-20T12:12:45;100353.18;;;-2.06;99.85
25869;BME280;13688;53.154;18.136;2022-11-20T12:18:17;100353.07;;;-2.03;100.00
25869;BME280;13688;53.154;18.136;2022-11-20T12:24:00;100345.70;;;-1.92;100.00
25869;BME280;13688;53.154;18.136;2022-11-20T12:35:37;100328.57;;;-1.79;100.00
25869;BME280;13688;53.154;18.136;2022-11-20T12:47:39;100319.30;;;-1.64;100.00
25869;BME280;13688;53.154;18.136;2022-11-20T13:05:17;100291.02;;;-1.35;100.00
25869;BME280;13688;53.154;18.136;2022-11-20T13:11:32;100290.78;;;-1.53;100.00
25869;BME280;13688;53.154;18.136;2022-11-20T13:17:05;100290.02;;;-1.56;100.00
25869;BME280;13688;53.154;18.136;2022-11-20T13:22:46;100279.20;;;-1.49;100.00
25869;BME280;13688;53.154;18.136;2022-11-20T13:33:54;100272.39;;;-1.54;100.00
25869;BME280;13688;53.154;18.136;2022-11-20T13:39:10;100249.28;;;-1.48;100.00
25869;BME280;13688;53.154;18.136;2022-11-20T13:44:47;100255.59;;;-1.52;100.00
25869;BME280;13688;53.154;18.136;2022-11-20T13:50:13;100260.92;;;-1.53;100.00
25869;BME280;13688;53.154;18.136;2022-11-20T13:56:00;100253.02;;;-1.53;100.00
25869;BME280;13688;53.154;18.136;2022-11-20T14:01:29;100267.06;;;-1.53;100.00
25869;BME280;13688;53.154;18.136;2022-11-20T14:06:53;100249.34;;;-1.49;100.00
25869;BME280;13688;53.154;18.136;2022-11-20T14:12:22;100246.77;;;-1.51;100.00
25869;BME280;13688;53.154;18.136;2022-11-20T14:17:47;100250.20;;;-1.49;100.00
25869;BME280;13688;53.154;18.136;2022-11-20T14:23:10;100245.05;;;-1.52;100.00
25869;BME280;13688;53.154;18.136;2022-11-20T14:28:40;100238.92;;;-1.52;100.00
25869;BME280;13688;53.154;18.136;2022-11-20T14:34:04;100243.33;;;-1.53;100.00
25869;BME280;13688;53.154;18.136;2022-11-20T14:39:42;100241.16;;;-1.41;100.00
25869;BME280;13688;53.154;18.136;2022-11-20T14:45:11;100245.38;;;-1.61;100.00
25869;BME280;13688;53.154;18.136;2022-11-20T14:50:34;100245.58;;;-1.67;100.00
25869;BME280;13688;53.154;18.136;2022-11-20T14:56:02;100234.30;;;-1.70;100.00
25869;BME280;13688;53.154;18.136;2022-11-20T15:01:27;100224.88;;;-1.78;100.00
25869;BME280;13688;53.154;18.136;2022-11-20T15:06:58;100231.18;;;-1.82;100.00
25869;BME280;13688;53.154;18.136;2022-11-20T15:12:22;100226.91;;;-1.86;100.00
25869;BME280;13688;53.154;18.136;2022-11-20T15:17:46;100218.38;;;-1.92;100.00
25869;BME280;13688;53.154;18.136;2022-11-20T15:23:11;100215.83;;;-1.95;100.00
25869;BME280;13688;53.154;18.136;2022-11-20T15:28:40;100222.94;;;-1.97;100.00
25869;BME280;13688;53.154;18.136;2022-11-20T15:34:05;100209.87;;;-2.00;100.00
25869;BME280;13688;53.154;18.136;2022-11-20T15:39:27;100209.94;;;-2.02;100.00
25869;BME280;13688;53.154;18.136;2022-11-20T15:44:50;100205.53;;;-2.02;100.00
25869;BME280;13688;53.154;18.136;2022-11-20T15:50:15;100208.16;;;-2.02;100.00
25869;BME280;13688;53.154;18.136;2022-11-20T15:55:39;100204.67;;;-2.02;100.00
25869;BME280;13688;53.154;18.136;2022-11-20T16:01:01;100203.81;;;-2.03;100.00
25869;BME280;13688;53.154;18.136;2022-11-20T16:06:28;100204.67;;;-2.02;100.00
25869;BME280;13688;53.154;18.136;2022-11-20T16:11:50;100205.67;;;-2.06;100.00
25869;BME280;13688;53.154;18.136;2022-11-20T16:17:13;100202.23;;;-2.08;100.00
25869;BME280;13688;53.154;18.136;2022-11-20T16:22:38;100199.59;;;-2.08;100.00
25869;BME280;13688;53.154;18.136;2022-11-20T16:28:00;100197.94;;;-2.11;100.00
25869;BME280;13688;53.154;18.136;2022-11-20T16:33:25;100192.67;;;-2.11;100.00
25869;BME280;13688;53.154;18.136;2022-11-20T16:38:51;100197.88;;;-2.09;100.00
25869;BME280;13688;53.154;18.136;2022-11-20T16:44:13;100193.53;;;-2.10;100.00
25869;BME280;13688;53.154;18.136;2022-11-20T16:49:35;100188.27;;;-2.10;100.00
25869;BME280;13688;53.154;18.136;2022-11-20T16:54:58;100190.90;;;-2.10;100.00
25869;BME280;13688;53.154;18.136;2022-11-20T17:00:21;100194.33;;;-2.08;100.00
25869;BME280;13688;53.154;18.136;2022-11-20T17:05:44;100192.55;;;-2.08;100.00
25869;BME280;13688;53.154;18.136;2022-11-20T17:11:08;100193.36;;;-2.06;100.00
25869;BME280;13688;53.154;18.136;2022-11-20T17:16:32;100187.29;;;-2.08;100.00
25869;BME280;13688;53.154;18.136;2022-11-20T17:21:55;100185.57;;;-2.09;100.00
25869;BME280;13688;53.154;18.136;2022-11-20T17:27:19;100182.94;;;-2.09;100.00
25869;BME280;13688;53.154;18.136;2022-11-20T17:32:42;100184.77;;;-2.11;100.00
25869;BME280;13688;53.154;18.136;2022-11-20T17:38:05;100176.81;;;-2.09;100.00
25869;BME280;13688;53.154;18.136;2022-11-20T17:43:28;100175.95;;;-2.10;100.00
25869;BME280;13688;53.154;18.136;2022-11-20T17:48:52;100165.41;;;-2.10;100.00
25869;BME280;13688;53.154;18.136;2022-11-20T17:54:15;100168.84;;;-2.08;100.00
25869;BME280;13688;53.154;18.136;2022-11-20T17:59:38;100166.27;;;-2.09;100.00
25869;BME280;13688;53.154;18.136;2022-11-20T18:05:00;100154.11;;;-2.13;100.00
25869;BME280;13688;53.154;18.136;2022-11-20T18:10:23;100150.73;;;-2.17;100.00
25869;BME280;13688;53.154;18.136;2022-11-20T18:15:46;100143.75;;;-2.18;100.00
25869;BME280;13688;53.154;18.136;2022-11-20T18:21:09;100148.16;;;-2.18;100.00
25869;BME280;13688;53.154;18.136;2022-11-20T18:26:31;100140.31;;;-2.20;100.00
25869;BME280;13688;53.154;18.136;2022-11-20T18:31:54;100136.91;;;-2.23;100.00
25869;BME280;13688;53.154;18.136;2022-11-20T18:37:16;100139.66;;;-2.26;100.00
25869;BME280;13688;53.154;18.136;2022-11-20T18:42:41;100130.90;;;-2.27;100.00
25869;BME280;13688;53.154;18.136;2022-11-20T18:48:22;100134.45;;;-2.28;100.00
25869;BME280;13688;53.154;18.136;2022-11-20T18:53:47;100130.09;;;-2.29;100.00
25869;BME280;13688;53.154;18.136;2022-11-20T18:59:11;100139.86;;;-2.33;100.00
25869;BME280;13688;53.154;18.136;2022-11-20T19:04:35;100139.83;;;-2.31;100.00
25869;BME280;13688;53.154;18.136;2022-11-20T19:09:58;100147.67;;;-2.29;100.00
25869;BME280;13688;53.154;18.136;2022-11-20T19:15:20;100142.41;;;-2.29;100.00
25869;BME280;13688;53.154;18.136;2022-11-20T19:20:44;100136.11;;;-2.25;100.00
25869;BME280;13688;53.154;18.136;2022-11-20T19:26:07;100139.72;;;-2.28;100.00
25869;BME280;13688;53.154;18.136;2022-11-20T19:31:30;100138.08;;;-2.32;100.00
25869;BME280;13688;53.154;18.136;2022-11-20T19:36:52;100140.71;;;-2.32;100.00
25869;BME280;13688;53.154;18.136;2022-11-20T19:42:14;100147.75;;;-2.33;100.00
25869;BME280;13688;53.154;18.136;2022-11-20T19:47:37;100148.61;;;-2.32;100.00
25869;BME280;13688;53.154;18.136;2022-11-20T19:53:01;100140.77;;;-2.34;100.00
25869;BME280;13688;53.154;18.136;2022-11-20T19:58:23;100139.86;;;-2.33;100.00
25869;BME280;13688;53.154;18.136;2022-11-20T20:03:46;100136.34;;;-2.32;100.00
25869;BME280;13688;53.154;18.136;2022-11-20T20:09:15;100133.70;;;-2.32;100.00
25869;BME280;13688;53.154;18.136;2022-11-20T20:14:39;100136.34;;;-2.32;100.00
25869;BME280;13688;53.154;18.136;2022-11-20T20:20:01;100128.44;;;-2.32;100.00
25869;BME280;13688;53.154;18.136;2022-11-20T20:25:24;100127.55;;;-2.32;100.00
25869;BME280;13688;53.154;18.136;2022-11-20T20:30:50;100127.52;;;-2.31;100.00
25869;BME280;13688;53.154;18.136;2022-11-20T20:36:14;100133.70;;;-2.32;100.00
25869;BME280;13688;53.154;18.136;2022-11-20T20:41:37;100137.20;;;-2.31;100.00
25869;BME280;13688;53.154;18.136;2022-11-20T20:46:59;100132.79;;;-2.31;100.00
25869;BME280;13688;53.154;18.136;2022-11-20T20:52:21;100138.80;;;-2.27;100.00
25869;BME280;13688;53.154;18.136;2022-11-20T20:57:44;100136.91;;;-2.23;100.00
25869;BME280;13688;53.154;18.136;2022-11-20T21:03:07;100133.09;;;-2.15;100.00
25869;BME280;13688;53.154;18.136;2022-11-20T21:08:29;100135.59;;;-2.10;100.00
25869;BME280;13688;53.154;18.136;2022-11-20T21:13:53;100125.79;;;-2.07;100.00
25869;BME280;13688;53.154;18.136;2022-11-20T21:19:16;100117.83;;;-2.05;100.00
25869;BME280;13688;53.154;18.136;2022-11-20T21:24:40;100124.93;;;-2.07;100.00
25869;BME280;13688;53.154;18.136;2022-11-20T21:30:02;100109.19;;;-2.09;100.00
25869;BME280;13688;53.154;18.136;2022-11-20T21:35:25;100118.87;;;-2.09;100.00
25869;BME280;13688;53.154;18.136;2022-11-20T21:40:50;100103.12;;;-2.11;100.00
25869;BME280;13688;53.154;18.136;2022-11-20T21:46:20;100119.88;;;-2.13;100.00
25869;BME280;13688;53.154;18.136;2022-11-20T21:51:42;100107.53;;;-2.11;100.00
25869;BME280;13688;53.154;18.136;2022-11-20T21:57:05;100104.92;;;-2.13;100.00
25869;BME280;13688;53.154;18.136;2022-11-20T22:02:27;100112.94;;;-2.16;100.00
25869;BME280;13688;53.154;18.136;2022-11-20T22:07:50;100104.19;;;-2.16;100.00
25869;BME280;13688;53.154;18.136;2022-11-20T22:13:12;100105.96;;;-2.17;100.00
25869;BME280;13688;53.154;18.136;2022-11-20T22:18:55;100099.95;;;-2.20;100.00
25869;BME280;13688;53.154;18.136;2022-11-20T22:24:19;100090.42;;;-2.24;100.00
25869;BME280;13688;53.154;18.136;2022-11-20T22:29:41;100081.91;;;-2.31;100.00
25869;BME280;13688;53.154;18.136;2022-11-20T22:35:04;100091.61;;;-2.33;100.00
25869;BME280;13688;53.154;18.136;2022-11-20T22:40:27;100097.73;;;-2.33;100.00
25869;BME280;13688;53.154;18.136;2022-11-20T22:45:49;100105.60;;;-2.31;100.00
25869;BME280;13688;53.154;18.136;2022-11-20T22:51:24;100103.71;;;-2.27;100.00
25869;BME280;13688;53.154;18.136;2022-11-20T22:56:47;100103.65;;;-2.26;100.00
25869;BME280;13688;53.154;18.136;2022-11-20T23:02:10;100094.89;;;-2.26;100.00
25869;BME280;13688;53.154;18.136;2022-11-20T23:07:32;100085.39;;;-2.31;100.00
25869;BME280;13688;53.154;18.136;2022-11-20T23:12:54;100085.54;;;-2.35;100.00
25869;BME280;13688;53.154;18.136;2022-11-20T23:18:17;100083.09;;;-2.40;99.93
25869;BME280;13688;53.154;18.136;2022-11-20T23:23:39;100076.30;;;-2.47;99.33
25869;BME280;13688;53.154;18.136;2022-11-20T23:29:05;100067.92;;;-2.58;98.90
25869;BME280;13688;53.154;18.136;2022-11-20T23:34:28;100061.34;;;-2.71;98.58
25869;BME280;13688;53.154;18.136;2022-11-20T23:39:50;100056.86;;;-2.94;98.27
25869;BME280;13688;53.154;18.136;2022-11-20T23:45:13;100063.64;;;-3.13;98.51
25869;BME280;13688;53.154;18.136;2022-11-20T23:50:35;100064.50;;;-3.13;99.35
25869;BME280;13688;53.154;18.136;2022-11-20T23:56:01;100069.92;;;-3.18;99.71
